sensor_id;sensor_type;location;lat;lon;timestamp;pressure;altitude;pressure_sealevel;temperature;humidity
49529;BME280;35423;37.320;-121.762;2023-04-24T00:00:00;99668.48;;;38.07;12.75
49529;BME280;35423;37.320;-121.762;2023-04-24T00:02:31;99671.74;;;38.13;12.88
49529;BME280;35423;37.320;-121.762;2023-04-24T00:05:02;99669.99;;;37.77;12.90
49529;BME280;35423;37.320;-121.762;2023-04-24T00:07:25;99674.22;;;37.84;12.97
49529;BME280;35423;37.320;-121.762;2023-04-24T00:09:53;99678.26;;;37.50;13.03
49529;BME280;35423;37.320;-121.762;2023-04-24T00:12:32;99681.79;;;37.57;12.99
49529;BME280;35423;37.320;-121.762;2023-04-24T00:14:57;99683.25;;;37.39;13.05
49529;BME280;35423;37.320;-121.762;2023-04-24T00:17:23;99689.96;;;37.18;13.01
49529;BME280;35423;37.320;-121.762;2023-04-24T00:19:52;99692.04;;;36.96;13.12
49529;BME280;35423;37.320;-121.762;2023-04-24T00:22:17;99689.84;;;36.98;13.21
49529;BME280;35423;37.320;-121.762;2023-04-24T00:24:46;99690.44;;;36.74;13.32
49529;BME280;35423;37.320;-121.762;2023-04-24T00:27:11;99696.23;;;37.01;13.40
49529;BME280;35423;37.320;-121.762;2023-04-24T00:29:36;99694.35;;;36.33;13.52
49529;BME280;35423;37.320;-121.762;2023-04-24T00:32:03;99694.86;;;36.38;13.67
49529;BME280;35423;37.320;-121.762;2023-04-24T00:34:38;99700.20;;;36.45;13.70
49529;BME280;35423;37.320;-121.762;2023-04-24T00:37:07;99699.46;;;36.17;13.77
49529;BME280;35423;37.320;-121.762;2023-04-24T00:39:32;99701.30;;;35.99;13.87
49529;BME280;35423;37.320;-121.762;2023-04-24T00:42:04;99705.24;;;35.82;13.94
49529;BME280;35423;37.320;-121.762;2023-04-24T00:44:33;99704.82;;;35.67;13.96
49529;BME280;35423;37.320;-121.762;2023-04-24T00:46:59;99701.49;;;35.80;13.98
49529;BME280;35423;37.320;-121.762;2023-04-24T00:49:29;99705.40;;;35.65;14.00
49529;BME280;35423;37.320;-121.762;2023-04-24T00:51:54;99707.01;;;35.21;14.02
49529;BME280;35423;37.320;-121.762;2023-04-24T00:54:21;99715.58;;;35.08;13.99
49529;BME280;35423;37.320;-121.762;2023-04-24T00:56:57;99717.87;;;35.24;14.01
49529;BME280;35423;37.320;-121.762;2023-04-24T00:59:22;99722.36;;;35.31;14.06
49529;BME280;35423;37.320;-121.762;2023-04-24T01:01:48;99726.88;;;34.67;14.10
49529;BME280;35423;37.320;-121.762;2023-04-24T01:04:13;99722.34;;;34.73;14.13
49529;BME280;35423;37.320;-121.762;2023-04-24T01:06:41;99723.02;;;34.74;14.26
49529;BME280;35423;37.320;-121.762;2023-04-24T01:09:08;99720.96;;;34.60;14.45
49529;BME280;35423;37.320;-121.762;2023-04-24T01:11:36;99717.99;;;34.46;14.59
49529;BME280;35423;37.320;-121.762;2023-04-24T01:14:05;99712.24;;;34.37;14.73
49529;BME280;35423;37.320;-121.762;2023-04-24T01:16:32;99713.97;;;34.24;14.88
49529;BME280;35423;37.320;-121.762;2023-04-24T01:19:32;99717.01;;;34.60;14.73
49529;BME280;35423;37.320;-121.762;2023-04-24T01:21:48;99722.88;;;33.91;14.64
49529;BME280;35423;37.320;-121.762;2023-04-24T01:24:17;99723.76;;;33.88;14.60
49529;BME280;35423;37.320;-121.762;2023-04-24T01:26:43;99721.76;;;33.74;14.76
49529;BME280;35423;37.320;-121.762;2023-04-24T01:29:10;99725.76;;;33.73;15.08
49529;BME280;35423;37.320;-121.762;2023-04-24T01:31:35;99731.54;;;33.29;15.20
49529;BME280;35423;37.320;-121.762;2023-04-24T01:34:02;99730.20;;;33.39;15.12
49529;BME280;35423;37.320;-121.762;2023-04-24T01:36:29;99734.36;;;33.18;15.32
49529;BME280;35423;37.320;-121.762;2023-04-24T01:38:54;99733.93;;;32.94;15.53
49529;BME280;35423;37.320;-121.762;2023-04-24T01:41:20;99734.03;;;32.80;15.56
49529;BME280;35423;37.320;-121.762;2023-04-24T01:43:48;99732.94;;;32.34;15.64
49529;BME280;35423;37.320;-121.762;2023-04-24T01:46:13;99734.38;;;32.44;15.60
49529;BME280;35423;37.320;-121.762;2023-04-24T01:48:39;99733.75;;;32.43;15.69
49529;BME280;35423;37.320;-121.762;2023-04-24T01:51:04;99735.40;;;32.24;15.78
49529;BME280;35423;37.320;-121.762;2023-04-24T01:53:30;99739.83;;;32.09;15.97
49529;BME280;35423;37.320;-121.762;2023-04-24T01:55:59;99734.26;;;32.18;16.10
49529;BME280;35423;37.320;-121.762;2023-04-24T01:58:28;99738.45;;;31.99;16.28
49529;BME280;35423;37.320;-121.762;2023-04-24T02:00:53;99738.05;;;31.78;16.39
49529;BME280;35423;37.320;-121.762;2023-04-24T02:03:20;99740.05;;;31.56;16.42
49529;BME280;35423;37.320;-121.762;2023-04-24T02:05:54;99748.66;;;31.27;16.56
49529;BME280;35423;37.320;-121.762;2023-04-24T02:08:13;99751.44;;;31.06;16.72
49529;BME280;35423;37.320;-121.762;2023-04-24T02:10:40;99756.92;;;31.03;16.71
49529;BME280;35423;37.320;-121.762;2023-04-24T02:13:08;99751.41;;;31.06;16.76
49529;BME280;35423;37.320;-121.762;2023-04-24T02:15:34;99749.92;;;30.25;16.95
49529;BME280;35423;37.320;-121.762;2023-04-24T02:18:00;99755.89;;;30.46;17.17
49529;BME280;35423;37.320;-121.762;2023-04-24T02:20:26;99749.51;;;30.23;17.40
49529;BME280;35423;37.320;-121.762;2023-04-24T02:22:53;99747.72;;;30.00;17.57
49529;BME280;35423;37.320;-121.762;2023-04-24T02:25:19;99744.01;;;30.10;17.64
49529;BME280;35423;37.320;-121.762;2023-04-24T02:27:45;99744.68;;;29.64;17.78
49529;BME280;35423;37.320;-121.762;2023-04-24T02:30:12;99748.77;;;29.75;17.93
49529;BME280;35423;37.320;-121.762;2023-04-24T02:32:37;99749.19;;;29.26;18.12
49529;BME280;35423;37.320;-121.762;2023-04-24T02:35:03;99750.39;;;29.36;18.29
49529;BME280;35423;37.320;-121.762;2023-04-24T02:37:28;99753.97;;;29.36;18.45
49529;BME280;35423;37.320;-121.762;2023-04-24T02:39:58;99754.90;;;29.17;18.64
49529;BME280;35423;37.320;-121.762;2023-04-24T02:42:31;99756.59;;;29.03;18.80
49529;BME280;35423;37.320;-121.762;2023-04-24T02:44:55;99755.60;;;28.86;18.99
49529;BME280;35423;37.320;-121.762;2023-04-24T02:47:22;99764.24;;;28.71;19.11
49529;BME280;35423;37.320;-121.762;2023-04-24T02:49:49;99762.57;;;28.62;19.26
49529;BME280;35423;37.320;-121.762;2023-04-24T02:52:14;99762.00;;;28.55;19.19
49529;BME280;35423;37.320;-121.762;2023-04-24T02:54:41;99768.19;;;28.70;19.22
49529;BME280;35423;37.320;-121.762;2023-04-24T02:57:06;99772.07;;;28.42;19.23
49529;BME280;35423;37.320;-121.762;2023-04-24T02:59:44;99776.27;;;28.81;19.30
49529;BME280;35423;37.320;-121.762;2023-04-24T03:02:10;99783.83;;;28.48;19.31
49529;BME280;35423;37.320;-121.762;2023-04-24T03:04:35;99794.57;;;28.22;19.29
49529;BME280;35423;37.320;-121.762;2023-04-24T03:07:03;99798.03;;;28.33;19.24
49529;BME280;35423;37.320;-121.762;2023-04-24T03:09:38;99798.75;;;28.48;19.12
49529;BME280;35423;37.320;-121.762;2023-04-24T03:12:06;99795.15;;;28.08;19.00
49529;BME280;35423;37.320;-121.762;2023-04-24T03:14:33;99800.33;;;28.26;18.94
49529;BME280;35423;37.320;-121.762;2023-04-24T03:17:01;99805.20;;;27.90;19.02
49529;BME280;35423;37.320;-121.762;2023-04-24T03:19:28;99815.91;;;28.30;18.98
49529;BME280;35423;37.320;-121.762;2023-04-24T03:21:53;99819.56;;;27.74;18.89
49529;BME280;35423;37.320;-121.762;2023-04-24T03:24:20;99821.24;;;27.94;18.91
49529;BME280;35423;37.320;-121.762;2023-04-24T03:26:49;99826.21;;;27.84;18.91
49529;BME280;35423;37.320;-121.762;2023-04-24T03:29:23;99828.66;;;27.48;18.96
49529;BME280;35423;37.320;-121.762;2023-04-24T03:31:49;99829.48;;;27.64;19.16
49529;BME280;35423;37.320;-121.762;2023-04-24T03:34:15;99823.85;;;27.55;19.29
49529;BME280;35423;37.320;-121.762;2023-04-24T03:36:42;99825.21;;;27.44;19.38
49529;BME280;35423;37.320;-121.762;2023-04-24T03:39:09;99829.15;;;27.54;19.51
49529;BME280;35423;37.320;-121.762;2023-04-24T03:41:35;99832.29;;;27.24;19.58
49529;BME280;35423;37.320;-121.762;2023-04-24T03:44:01;99839.24;;;27.38;19.62
49529;BME280;35423;37.320;-121.762;2023-04-24T03:46:33;99837.40;;;27.05;19.66
49529;BME280;35423;37.320;-121.762;2023-04-24T03:48:59;99836.91;;;26.91;19.70
49529;BME280;35423;37.320;-121.762;2023-04-24T03:51:27;99833.23;;;27.30;19.75
49529;BME280;35423;37.320;-121.762;2023-04-24T03:54:02;99833.73;;;27.18;19.81
49529;BME280;35423;37.320;-121.762;2023-04-24T03:56:30;99838.29;;;26.61;19.87
49529;BME280;35423;37.320;-121.762;2023-04-24T03:58:57;99844.23;;;26.73;19.97
49529;BME280;35423;37.320;-121.762;2023-04-24T04:01:23;99845.66;;;26.93;20.06
49529;BME280;35423;37.320;-121.762;2023-04-24T04:03:52;99853.95;;;26.58;20.13
49529;BME280;35423;37.320;-121.762;2023-04-24T04:06:18;99857.17;;;26.75;20.20
49529;BME280;35423;37.320;-121.762;2023-04-24T04:08:50;99859.52;;;26.68;20.33
49529;BME280;35423;37.320;-121.762;2023-04-24T04:11:16;99865.95;;;26.60;20.41
49529;BME280;35423;37.320;-121.762;2023-04-24T04:13:42;99872.25;;;26.51;20.53
49529;BME280;35423;37.320;-121.762;2023-04-24T04:16:10;99879.33;;;26.15;20.63
49529;BME280;35423;37.320;-121.762;2023-04-24T04:18:33;99879.07;;;26.32;20.73
49529;BME280;35423;37.320;-121.762;2023-04-24T04:21:00;99876.67;;;26.25;20.80
49529;BME280;35423;37.320;-121.762;2023-04-24T04:23:25;99877.16;;;26.15;20.77
49529;BME280;35423;37.320;-121.762;2023-04-24T04:26:02;99871.60;;;26.48;20.76
49529;BME280;35423;37.320;-121.762;2023-04-24T04:28:24;99874.77;;;25.99;20.73
49529;BME280;35423;37.320;-121.762;2023-04-24T04:30:49;99877.38;;;26.15;20.74
49529;BME280;35423;37.320;-121.762;2023-04-24T04:33:15;99885.40;;;26.10;20.73
49529;BME280;35423;37.320;-121.762;2023-04-24T04:35:43;99886.48;;;26.01;20.78
49529;BME280;35423;37.320;-121.762;2023-04-24T04:38:09;99889.87;;;25.69;20.84
49529;BME280;35423;37.320;-121.762;2023-04-24T04:40:36;99886.31;;;25.82;20.89
49529;BME280;35423;37.320;-121.762;2023-04-24T04:43:02;99882.50;;;25.72;20.78
49529;BME280;35423;37.320;-121.762;2023-04-24T04:45:30;99876.73;;;25.44;20.40
49529;BME280;35423;37.320;-121.762;2023-04-24T04:47:58;99880.04;;;25.74;20.23
49529;BME280;35423;37.320;-121.762;2023-04-24T04:50:31;99878.60;;;25.65;20.31
49529;BME280;35423;37.320;-121.762;2023-04-24T04:52:59;99876.03;;;25.78;20.36
49529;BME280;35423;37.320;-121.762;2023-04-24T04:55:28;99877.82;;;25.36;20.76
49529;BME280;35423;37.320;-121.762;2023-04-24T04:58:02;99876.83;;;25.25;21.10
49529;BME280;35423;37.320;-121.762;2023-04-24T05:00:30;99879.66;;;25.06;21.37
49529;BME280;35423;37.320;-121.762;2023-04-24T05:02:55;99881.31;;;25.17;21.68
49529;BME280;35423;37.320;-121.762;2023-04-24T05:05:23;99884.53;;;24.73;21.93
49529;BME280;35423;37.320;-121.762;2023-04-24T05:07:49;99884.25;;;24.63;22.12
49529;BME280;35423;37.320;-121.762;2023-04-24T05:10:15;99886.04;;;24.73;22.31
49529;BME280;35423;37.320;-121.762;2023-04-24T05:12:40;99891.58;;;24.53;22.54
49529;BME280;35423;37.320;-121.762;2023-04-24T05:15:08;99898.60;;;24.41;22.72
49529;BME280;35423;37.320;-121.762;2023-04-24T05:17:35;99898.33;;;24.58;22.85
49529;BME280;35423;37.320;-121.762;2023-04-24T05:20:02;99895.01;;;24.53;22.89
49529;BME280;35423;37.320;-121.762;2023-04-24T05:22:27;99892.30;;;24.52;22.95
49529;BME280;35423;37.320;-121.762;2023-04-24T05:24:58;99896.35;;;24.78;22.97
49529;BME280;35423;37.320;-121.762;2023-04-24T05:27:28;99897.66;;;24.52;22.88
49529;BME280;35423;37.320;-121.762;2023-04-24T05:29:54;99888.92;;;24.51;22.74
49529;BME280;35423;37.320;-121.762;2023-04-24T05:32:20;99890.93;;;24.31;22.48
49529;BME280;35423;37.320;-121.762;2023-04-24T05:34:46;99894.19;;;24.33;22.30
49529;BME280;35423;37.320;-121.762;2023-04-24T05:37:13;99890.20;;;24.54;22.07
49529;BME280;35423;37.320;-121.762;2023-04-24T05:39:45;99892.87;;;24.51;21.96
49529;BME280;35423;37.320;-121.762;2023-04-24T05:42:10;99900.44;;;24.45;21.90
49529;BME280;35423;37.320;-121.762;2023-04-24T05:44:36;99909.21;;;24.43;21.90
49529;BME280;35423;37.320;-121.762;2023-04-24T05:47:01;99908.81;;;24.38;21.81
49529;BME280;35423;37.320;-121.762;2023-04-24T05:49:30;99910.36;;;24.31;21.86
49529;BME280;35423;37.320;-121.762;2023-04-24T05:52:24;99905.19;;;24.23;21.89
49529;BME280;35423;37.320;-121.762;2023-04-24T05:54:51;99903.43;;;24.10;22.01
49529;BME280;35423;37.320;-121.762;2023-04-24T05:57:28;99902.39;;;24.29;22.07
49529;BME280;35423;37.320;-121.762;2023-04-24T05:59:54;99897.62;;;23.95;22.12
49529;BME280;35423;37.320;-121.762;2023-04-24T06:02:22;99891.50;;;24.13;22.14
49529;BME280;35423;37.320;-121.762;2023-04-24T06:04:49;99884.55;;;24.05;22.17
49529;BME280;35423;37.320;-121.762;2023-04-24T06:07:16;99881.31;;;23.71;22.25
49529;BME280;35423;37.320;-121.762;2023-04-24T06:09:48;99881.25;;;24.14;22.32
49529;BME280;35423;37.320;-121.762;2023-04-24T06:12:16;99881.31;;;23.62;22.35
49529;BME280;35423;37.320;-121.762;2023-04-24T06:14:52;99879.73;;;23.80;22.46
49529;BME280;35423;37.320;-121.762;2023-04-24T06:17:36;99873.10;;;23.89;22.69
49529;BME280;35423;37.320;-121.762;2023-04-24T06:20:09;99873.88;;;23.77;22.85
49529;BME280;35423;37.320;-121.762;2023-04-24T06:22:36;99871.89;;;23.66;22.98
49529;BME280;35423;37.320;-121.762;2023-04-24T06:25:05;99865.88;;;23.31;23.09
49529;BME280;35423;37.320;-121.762;2023-04-24T06:27:33;99861.64;;;23.44;23.19
49529;BME280;35423;37.320;-121.762;2023-04-24T06:30:01;99858.40;;;23.35;23.23
49529;BME280;35423;37.320;-121.762;2023-04-24T06:32:28;99857.15;;;23.23;23.27
49529;BME280;35423;37.320;-121.762;2023-04-24T06:34:56;99852.40;;;23.06;23.30
49529;BME280;35423;37.320;-121.762;2023-04-24T06:37:21;99848.78;;;22.93;23.42
49529;BME280;35423;37.320;-121.762;2023-04-24T06:39:50;99848.56;;;22.83;23.48
49529;BME280;35423;37.320;-121.762;2023-04-24T06:42:16;99855.32;;;22.79;23.50
49529;BME280;35423;37.320;-121.762;2023-04-24T06:44:41;99864.02;;;22.99;23.52
49529;BME280;35423;37.320;-121.762;2023-04-24T06:47:09;99865.62;;;22.96;23.59
49529;BME280;35423;37.320;-121.762;2023-04-24T06:49:36;99868.53;;;22.69;23.65
49529;BME280;35423;37.320;-121.762;2023-04-24T06:52:03;99875.19;;;23.13;23.64
49529;BME280;35423;37.320;-121.762;2023-04-24T06:54:31;99878.25;;;22.55;23.63
49529;BME280;35423;37.320;-121.762;2023-04-24T06:57:01;99882.31;;;22.70;23.64
49529;BME280;35423;37.320;-121.762;2023-04-24T06:59:26;99883.25;;;22.92;23.62
49529;BME280;35423;37.320;-121.762;2023-04-24T07:01:52;99878.56;;;22.56;23.67
49529;BME280;35423;37.320;-121.762;2023-04-24T07:04:23;99878.41;;;22.76;23.72
49529;BME280;35423;37.320;-121.762;2023-04-24T07:06:50;99880.31;;;22.17;23.82
49529;BME280;35423;37.320;-121.762;2023-04-24T07:09:18;99882.89;;;22.35;23.90
49529;BME280;35423;37.320;-121.762;2023-04-24T07:11:46;99887.41;;;22.28;23.99
49529;BME280;35423;37.320;-121.762;2023-04-24T07:14:15;99892.23;;;22.26;24.00
49529;BME280;35423;37.320;-121.762;2023-04-24T07:16:46;99899.37;;;22.55;23.98
49529;BME280;35423;37.320;-121.762;2023-04-24T07:19:13;99902.67;;;22.01;24.00
49529;BME280;35423;37.320;-121.762;2023-04-24T07:21:41;99904.47;;;22.16;24.04
49529;BME280;35423;37.320;-121.762;2023-04-24T07:24:09;99906.67;;;22.06;24.10
49529;BME280;35423;37.320;-121.762;2023-04-24T07:26:37;99903.66;;;22.00;24.13
49529;BME280;35423;37.320;-121.762;2023-04-24T07:29:03;99902.53;;;22.17;24.24
49529;BME280;35423;37.320;-121.762;2023-04-24T07:31:34;99908.27;;;22.08;24.33
49529;BME280;35423;37.320;-121.762;2023-04-24T07:34:00;99908.45;;;21.73;24.40
49529;BME280;35423;37.320;-121.762;2023-04-24T07:36:34;99914.83;;;21.92;24.47
49529;BME280;35423;37.320;-121.762;2023-04-24T07:39:31;99910.36;;;21.82;24.56
49529;BME280;35423;37.320;-121.762;2023-04-24T07:41:56;99908.33;;;21.71;24.65
49529;BME280;35423;37.320;-121.762;2023-04-24T07:44:21;99902.70;;;21.63;24.74
49529;BME280;35423;37.320;-121.762;2023-04-24T07:46:59;99901.06;;;21.54;24.83
49529;BME280;35423;37.320;-121.762;2023-04-24T07:49:24;99900.75;;;21.46;24.90
49529;BME280;35423;37.320;-121.762;2023-04-24T07:51:53;99899.98;;;21.43;24.94
49529;BME280;35423;37.320;-121.762;2023-04-24T07:54:22;99896.59;;;21.59;25.03
49529;BME280;35423;37.320;-121.762;2023-04-24T07:56:50;99897.31;;;21.72;25.16
49529;BME280;35423;37.320;-121.762;2023-04-24T07:59:18;99895.29;;;21.19;25.23
49529;BME280;35423;37.320;-121.762;2023-04-24T08:01:44;99894.50;;;21.52;25.32
49529;BME280;35423;37.320;-121.762;2023-04-24T08:04:09;99895.11;;;21.01;25.36
49529;BME280;35423;37.320;-121.762;2023-04-24T08:06:36;99897.56;;;21.40;25.44
49529;BME280;35423;37.320;-121.762;2023-04-24T08:09:02;99898.22;;;21.31;25.52
49529;BME280;35423;37.320;-121.762;2023-04-24T08:11:31;99903.67;;;21.25;25.65
49529;BME280;35423;37.320;-121.762;2023-04-24T08:14:03;99909.03;;;20.99;25.68
49529;BME280;35423;37.320;-121.762;2023-04-24T08:16:35;99919.12;;;21.15;25.76
49529;BME280;35423;37.320;-121.762;2023-04-24T08:19:04;99919.83;;;20.89;25.81
49529;BME280;35423;37.320;-121.762;2023-04-24T08:21:34;99917.72;;;21.30;25.88
49529;BME280;35423;37.320;-121.762;2023-04-24T08:24:01;99909.58;;;20.91;26.04
49529;BME280;35423;37.320;-121.762;2023-04-24T08:26:28;99909.11;;;20.85;26.04
49529;BME280;35423;37.320;-121.762;2023-04-24T08:28:56;99908.99;;;21.02;26.17
49529;BME280;35423;37.320;-121.762;2023-04-24T08:31:23;99911.37;;;20.96;26.27
49529;BME280;35423;37.320;-121.762;2023-04-24T08:33:48;99914.15;;;20.60;26.41
49529;BME280;35423;37.320;-121.762;2023-04-24T08:36:16;99916.26;;;20.56;26.45
49529;BME280;35423;37.320;-121.762;2023-04-24T08:38:43;99917.64;;;20.50;26.51
49529;BME280;35423;37.320;-121.762;2023-04-24T08:41:15;99916.10;;;20.42;26.61
49529;BME280;35423;37.320;-121.762;2023-04-24T08:43:35;99915.46;;;20.63;26.66
49529;BME280;35423;37.320;-121.762;2023-04-24T08:46:03;99912.91;;;20.29;26.68
49529;BME280;35423;37.320;-121.762;2023-04-24T08:48:27;99901.80;;;20.20;26.75
49529;BME280;35423;37.320;-121.762;2023-04-24T08:50:52;99898.22;;;20.11;26.77
49529;BME280;35423;37.320;-121.762;2023-04-24T08:53:19;99888.79;;;20.01;26.85
49529;BME280;35423;37.320;-121.762;2023-04-24T08:55:47;99885.36;;;19.96;26.90
49529;BME280;35423;37.320;-121.762;2023-04-24T08:58:14;99881.70;;;19.92;26.96
49529;BME280;35423;37.320;-121.762;2023-04-24T09:00:40;99883.80;;;20.10;27.05
49529;BME280;35423;37.320;-121.762;2023-04-24T09:03:07;99880.44;;;20.25;27.08
49529;BME280;35423;37.320;-121.762;2023-04-24T09:05:33;99877.06;;;20.15;27.18
49529;BME280;35423;37.320;-121.762;2023-04-24T09:08:05;99868.01;;;19.83;27.25
49529;BME280;35423;37.320;-121.762;2023-04-24T09:10:32;99872.75;;;19.77;27.32
49529;BME280;35423;37.320;-121.762;2023-04-24T09:13:00;99880.61;;;19.93;27.40
49529;BME280;35423;37.320;-121.762;2023-04-24T09:15:42;99885.42;;;19.86;27.53
49529;BME280;35423;37.320;-121.762;2023-04-24T09:18:22;99884.11;;;19.58;27.62
49529;BME280;35423;37.320;-121.762;2023-04-24T09:20:59;99887.85;;;19.53;27.58
49529;BME280;35423;37.320;-121.762;2023-04-24T09:23:25;99887.16;;;19.68;27.62
49529;BME280;35423;37.320;-121.762;2023-04-24T09:25:54;99884.28;;;19.88;27.65
49529;BME280;35423;37.320;-121.762;2023-04-24T09:28:19;99889.67;;;19.79;27.66
49529;BME280;35423;37.320;-121.762;2023-04-24T09:33:27;99889.23;;;19.39;27.84
49529;BME280;35423;37.320;-121.762;2023-04-24T09:36:12;99892.49;;;19.78;27.97
49529;BME280;35423;37.320;-121.762;2023-04-24T09:38:38;99890.03;;;19.23;28.03
49529;BME280;35423;37.320;-121.762;2023-04-24T09:41:07;99884.52;;;19.64;28.15
49529;BME280;35423;37.320;-121.762;2023-04-24T09:43:41;99874.76;;;19.56;28.23
49529;BME280;35423;37.320;-121.762;2023-04-24T09:46:07;99870.75;;;19.49;28.29
49529;BME280;35423;37.320;-121.762;2023-04-24T09:48:32;99867.27;;;18.94;28.38
49529;BME280;35423;37.320;-121.762;2023-04-24T09:51:01;99862.75;;;18.88;28.45
49529;BME280;35423;37.320;-121.762;2023-04-24T09:53:28;99864.29;;;19.34;28.47
49529;BME280;35423;37.320;-121.762;2023-04-24T09:56:06;99862.00;;;19.28;28.54
49529;BME280;35423;37.320;-121.762;2023-04-24T09:58:38;99857.19;;;19.23;28.58
49529;BME280;35423;37.320;-121.762;2023-04-24T10:01:10;99853.38;;;18.96;28.69
49529;BME280;35423;37.320;-121.762;2023-04-24T10:03:37;99851.48;;;18.90;28.66
49529;BME280;35423;37.320;-121.762;2023-04-24T10:06:17;99852.65;;;19.06;28.69
49529;BME280;35423;37.320;-121.762;2023-04-24T10:08:54;99856.75;;;18.99;28.77
49529;BME280;35423;37.320;-121.762;2023-04-24T10:11:19;99858.63;;;18.74;28.83
49529;BME280;35423;37.320;-121.762;2023-04-24T10:13:47;99864.41;;;18.71;28.90
49529;BME280;35423;37.320;-121.762;2023-04-24T10:16:14;99870.39;;;18.67;28.97
49529;BME280;35423;37.320;-121.762;2023-04-24T10:18:41;99868.64;;;18.87;29.05
49529;BME280;35423;37.320;-121.762;2023-04-24T10:21:06;99860.73;;;18.78;29.01
49529;BME280;35423;37.320;-121.762;2023-04-24T10:23:38;99854.20;;;18.68;29.13
49529;BME280;35423;37.320;-121.762;2023-04-24T10:26:02;99843.96;;;18.58;29.08
49529;BME280;35423;37.320;-121.762;2023-04-24T10:28:28;99846.85;;;18.49;29.26
49529;BME280;35423;37.320;-121.762;2023-04-24T10:30:55;99844.64;;;18.45;29.32
49529;BME280;35423;37.320;-121.762;2023-04-24T10:33:23;99837.55;;;18.40;29.32
49529;BME280;35423;37.320;-121.762;2023-04-24T10:35:54;99836.81;;;18.37;29.25
49529;BME280;35423;37.320;-121.762;2023-04-24T10:38:24;99837.75;;;18.36;29.04
49529;BME280;35423;37.320;-121.762;2023-04-24T10:40:48;99836.19;;;18.51;28.99
49529;BME280;35423;37.320;-121.762;2023-04-24T10:43:17;99837.32;;;18.46;28.93
49529;BME280;35423;37.320;-121.762;2023-04-24T10:45:39;99835.61;;;18.19;28.89
49529;BME280;35423;37.320;-121.762;2023-04-24T10:48:08;99841.41;;;18.39;28.75
49529;BME280;35423;37.320;-121.762;2023-04-24T10:50:43;99844.81;;;18.10;28.71
49529;BME280;35423;37.320;-121.762;2023-04-24T10:53:12;99845.23;;;18.07;28.73
49529;BME280;35423;37.320;-121.762;2023-04-24T10:55:40;99844.74;;;18.29;28.70
49529;BME280;35423;37.320;-121.762;2023-04-24T10:58:03;99854.45;;;18.23;28.69
49529;BME280;35423;37.320;-121.762;2023-04-24T11:00:31;99865.61;;;18.23;28.57
49529;BME280;35423;37.320;-121.762;2023-04-24T11:02:58;99866.07;;;18.41;28.62
49529;BME280;35423;37.320;-121.762;2023-04-24T11:10:45;99871.76;;;17.95;28.78
49529;BME280;35423;37.320;-121.762;2023-04-24T11:13:16;99867.12;;;18.17;28.90
49529;BME280;35423;37.320;-121.762;2023-04-24T11:15:42;99862.55;;;17.83;29.05
49529;BME280;35423;37.320;-121.762;2023-04-24T11:18:07;99869.80;;;18.03;29.15
49529;BME280;35423;37.320;-121.762;2023-04-24T11:20:35;99872.09;;;17.75;29.20
49529;BME280;35423;37.320;-121.762;2023-04-24T11:23:04;99873.22;;;17.72;29.28
49529;BME280;35423;37.320;-121.762;2023-04-24T11:25:31;99871.87;;;17.96;29.34
49529;BME280;35423;37.320;-121.762;2023-04-24T11:28:04;99878.13;;;17.95;29.38
49529;BME280;35423;37.320;-121.762;2023-04-24T11:30:31;99882.70;;;17.93;29.39
49529;BME280;35423;37.320;-121.762;2023-04-24T11:32:55;99883.70;;;17.61;29.48
49529;BME280;35423;37.320;-121.762;2023-04-24T11:35:24;99888.32;;;17.88;29.56
49529;BME280;35423;37.320;-121.762;2023-04-24T11:37:50;99894.28;;;17.83;29.59
49529;BME280;35423;37.320;-121.762;2023-04-24T11:40:21;99899.40;;;17.78;29.63
49529;BME280;35423;37.320;-121.762;2023-04-24T11:42:47;99902.00;;;17.74;29.66
49529;BME280;35423;37.320;-121.762;2023-04-24T11:45:15;99904.10;;;17.66;29.76
49529;BME280;35423;37.320;-121.762;2023-04-24T11:47:44;99895.15;;;17.65;29.82
49529;BME280;35423;37.320;-121.762;2023-04-24T11:50:13;99885.46;;;17.58;29.88
49529;BME280;35423;37.320;-121.762;2023-04-24T11:52:44;99882.22;;;17.56;29.96
49529;BME280;35423;37.320;-121.762;2023-04-24T11:55:09;99887.29;;;17.50;30.03
49529;BME280;35423;37.320;-121.762;2023-04-24T11:57:43;99892.19;;;17.47;30.04
49529;BME280;35423;37.320;-121.762;2023-04-24T12:00:15;99895.16;;;17.65;30.08
49529;BME280;35423;37.320;-121.762;2023-04-24T12:02:35;99889.33;;;17.14;30.11
49529;BME280;35423;37.320;-121.762;2023-04-24T12:05:01;99881.55;;;17.34;30.20
49529;BME280;35423;37.320;-121.762;2023-04-24T12:07:40;99878.44;;;17.27;30.26
49529;BME280;35423;37.320;-121.762;2023-04-24T12:10:00;99870.39;;;17.19;30.35
49529;BME280;35423;37.320;-121.762;2023-04-24T12:12:27;99867.95;;;17.34;30.45
49529;BME280;35423;37.320;-121.762;2023-04-24T12:14:54;99870.10;;;17.02;30.55
49529;BME280;35423;37.320;-121.762;2023-04-24T12:17:23;99873.25;;;16.98;30.56
49529;BME280;35423;37.320;-121.762;2023-04-24T12:19:49;99872.82;;;16.93;30.60
49529;BME280;35423;37.320;-121.762;2023-04-24T12:22:11;99871.34;;;17.11;30.61
49529;BME280;35423;37.320;-121.762;2023-04-24T12:27:02;99875.94;;;17.02;30.68
49529;BME280;35423;37.320;-121.762;2023-04-24T12:29:32;99874.35;;;16.76;30.74
49529;BME280;35423;37.320;-121.762;2023-04-24T12:32:03;99877.71;;;16.74;30.76
49529;BME280;35423;37.320;-121.762;2023-04-24T12:34:26;99879.02;;;16.91;30.81
49529;BME280;35423;37.320;-121.762;2023-04-24T12:36:57;99871.57;;;17.07;30.86
49529;BME280;35423;37.320;-121.762;2023-04-24T12:39:24;99871.79;;;17.00;30.93
49529;BME280;35423;37.320;-121.762;2023-04-24T12:41:54;99880.59;;;16.50;31.00
49529;BME280;35423;37.320;-121.762;2023-04-24T12:44:18;99881.55;;;16.91;31.03